Cooper, Iowa
Current Conditions -  °F | °C
As of 2:15 AM on Monday 24 Nov 2014 (Local Time) from KPRO Reporting Station
Overcast Overcast  
Wind Chill: 19°   Ceiling: 1900
Heat Index: 31°   Visibility: 10mi
Dew Point: 27°   Wind: 20mph
Humidity: 83%   Direction: 320°NW
Pressure: 29.42"   Gusts: 30mph
Location:  41.92°N, 94.35°W
Report Text: KPRO 240815Z AUTO 32017G26KT 10SM OVC019 00/M03 A2942 RMK AO2 T10041029
Loading
Personal Weather Stations






























Interactive Weather Map New forecast layout! Learn more

10-Day Weather Forecast

Advertisements
Track Severe Weather on mobile